createdAt,value
2022-12-03T00:01:54.986Z,97779.84
2022-12-03T00:04:27.969Z,97775.84
2022-12-03T00:06:54.492Z,97773.94
2022-12-03T00:09:20.947Z,97763.56
2022-12-03T00:11:47.573Z,97768.88
2022-12-03T00:14:14.053Z,97763.88
2022-12-03T00:16:40.824Z,97770.78
2022-12-03T00:19:09.472Z,97767.91
2022-12-03T00:21:37.696Z,97767.13
2022-12-03T00:24:04.377Z,97755.91
2022-12-03T00:26:32.624Z,97752.59
2022-12-03T00:28:59.151Z,97762.22
2022-12-03T00:31:25.844Z,97761.25
2022-12-03T00:33:54.461Z,97758.59
2022-12-03T00:36:21.021Z,97772.84
2022-12-03T00:38:47.566Z,97767.16
2022-12-03T00:41:14.224Z,97760.09
2022-12-03T00:43:40.697Z,97762.38
2022-12-03T00:46:07.296Z,97765.31
2022-12-03T00:48:33.999Z,97763.81
2022-12-03T00:51:00.685Z,97762.84
2022-12-03T00:53:27.357Z,97757.06
2022-12-03T00:55:53.983Z,97744.38
2022-12-03T00:58:20.459Z,97755.78
2022-12-03T01:00:50.384Z,97755.59
2022-12-03T01:03:22.798Z,97765.41
2022-12-03T01:05:49.246Z,97768.72
2022-12-03T01:08:15.843Z,97771.50
2022-12-03T01:10:50.969Z,97770.22
2022-12-03T01:13:17.526Z,97773.06
2022-12-03T01:15:44.067Z,97770.22
2022-12-03T01:18:10.957Z,97773.84
2022-12-03T01:20:38.606Z,97772.94
2022-12-03T01:23:07.351Z,97774.44
2022-12-03T01:25:34.033Z,97780.81
2022-12-03T01:28:00.646Z,97780.53
2022-12-03T01:30:27.229Z,97775.72
2022-12-03T01:33:00.230Z,97778.75
2022-12-03T01:35:26.697Z,97783.19
2022-12-03T01:37:53.194Z,97787.41
2022-12-03T01:40:23.504Z,97787.97
2022-12-03T01:42:50.058Z,97792.28
2022-12-03T01:45:23.779Z,97791.47
2022-12-03T01:47:52.096Z,97784.63
2022-12-03T01:50:23.302Z,97788.94
2022-12-03T01:52:50.178Z,97790.72
2022-12-03T01:55:21.348Z,97786.47
2022-12-03T01:57:51.941Z,97795.59
2022-12-03T02:05:54.710Z,97788.66
2022-12-03T02:08:37.716Z,97793.28
2022-12-03T02:11:29.441Z,97794.84
2022-12-03T02:14:01.853Z,97794.53
2022-12-03T02:16:32.577Z,97791.28
2022-12-03T02:19:01.080Z,97790.09
2022-12-03T02:21:48.539Z,97795.53
2022-12-03T02:24:29.977Z,97797.00
2022-12-03T02:26:56.662Z,97795.41
2022-12-03T02:29:23.178Z,97789.94
2022-12-03T02:31:49.778Z,97787.88
2022-12-03T02:34:45.657Z,97784.22
2022-12-03T02:37:28.876Z,97781.75
2022-12-03T02:40:01.577Z,97774.03
2022-12-03T02:42:37.824Z,97766.94
2022-12-03T02:45:24.423Z,97766.16
2022-12-03T02:48:05.572Z,97768.50
2022-12-03T02:50:41.395Z,97769.09
2022-12-03T02:53:12.917Z,97778.13
2022-12-03T02:55:42.242Z,97773.81
2022-12-03T02:58:10.196Z,97774.81
2022-12-03T03:00:37.652Z,97764.41
2022-12-03T03:03:06.741Z,97765.09
2022-12-03T03:05:36.600Z,97769.72
2022-12-03T03:08:03.728Z,97767.94
2022-12-03T03:10:31.573Z,97761.88
2022-12-03T03:13:00.173Z,97753.78
2022-12-03T03:15:26.721Z,97757.34
2022-12-03T03:17:53.474Z,97750.69
2022-12-03T03:20:20.237Z,97747.34
2022-12-03T03:22:46.840Z,97752.72
2022-12-03T03:25:16.855Z,97750.97
2022-12-03T03:27:46.427Z,97753.91
2022-12-03T03:30:15.394Z,97744.47
2022-12-03T03:32:42.815Z,97742.91
2022-12-03T03:35:10.905Z,97749.28
2022-12-03T03:37:38.245Z,97763.03
2022-12-03T03:40:05.378Z,97750.56
2022-12-03T03:42:38.495Z,97753.88
2022-12-03T03:45:07.067Z,97743.19
2022-12-03T03:47:37.670Z,97746.97
2022-12-03T03:50:05.515Z,97749.75
2022-12-03T03:52:32.482Z,97740.78
2022-12-03T03:54:59.208Z,97752.06
2022-12-03T03:57:28.481Z,97749.13
2022-12-03T03:59:55.085Z,97753.13
2022-12-03T04:02:24.622Z,97751.28
2022-12-03T04:05:02.001Z,97755.47
2022-12-03T04:07:29.791Z,97761.75
2022-12-03T04:09:56.294Z,97752.31
2022-12-03T04:12:41.316Z,97752.59
2022-12-03T04:15:08.446Z,97755.06
2022-12-03T04:17:34.950Z,97748.47
2022-12-03T04:20:08.101Z,97753.25
2022-12-03T04:22:40.332Z,97751.41
2022-12-03T04:25:29.518Z,97758.78
2022-12-03T04:28:14.565Z,97754.47
2022-12-03T04:30:41.344Z,97763.31
2022-12-03T04:33:26.254Z,97750.66
2022-12-03T04:35:53.164Z,97758.00
2022-12-03T04:38:19.764Z,97753.31
2022-12-03T04:41:05.776Z,97746.84
2022-12-03T04:43:34.792Z,97760.47
2022-12-03T04:46:02.403Z,97762.03
2022-12-03T04:48:29.656Z,97758.78
2022-12-03T04:50:56.550Z,97755.41
2022-12-03T04:53:23.395Z,97756.41
2022-12-03T04:55:49.980Z,97757.03
2022-12-03T04:58:18.508Z,97761.19
2022-12-03T05:00:45.008Z,97763.25
2022-12-03T05:03:13.269Z,97755.47
2022-12-03T05:05:39.724Z,97751.19
2022-12-03T05:08:06.630Z,97747.16
2022-12-03T05:10:41.835Z,97747.28
2022-12-03T05:13:08.294Z,97749.56
2022-12-03T05:15:34.780Z,97741.22
2022-12-03T05:18:01.615Z,97736.50
2022-12-03T05:20:45.851Z,97736.63
2022-12-03T05:23:23.930Z,97740.94
2022-12-03T05:25:50.497Z,97749.78
2022-12-03T05:28:17.116Z,97754.22
2022-12-03T05:30:43.696Z,97760.59
2022-12-03T05:33:10.390Z,97763.16
2022-12-03T05:35:36.856Z,97757.06
2022-12-03T05:38:08.524Z,97768.56
2022-12-03T05:40:35.084Z,97765.63
2022-12-03T05:43:01.840Z,97769.63
2022-12-03T05:45:34.045Z,97771.59
2022-12-03T05:48:01.619Z,97762.16
2022-12-03T05:50:30.623Z,97761.84
2022-12-03T05:52:59.168Z,97769.22
2022-12-03T05:55:26.554Z,97767.28
2022-12-03T05:57:53.232Z,97764.72
2022-12-03T06:00:24.705Z,97766.19
2022-12-03T06:02:51.721Z,97762.84
2022-12-03T06:05:21.559Z,97774.84
2022-12-03T06:07:52.273Z,97771.91
2022-12-03T06:10:22.457Z,97768.75
2022-12-03T06:12:49.293Z,97770.63
2022-12-03T06:15:18.251Z,97765.00
2022-12-03T06:17:48.913Z,97762.75
2022-12-03T06:20:18.717Z,97765.31
2022-12-03T06:22:45.789Z,97762.44
2022-12-03T06:25:13.010Z,97762.22
2022-12-03T06:27:39.541Z,97755.75
2022-12-03T06:30:08.034Z,97748.97
2022-12-03T06:32:34.769Z,97750.06
2022-12-03T06:35:01.446Z,97749.25
2022-12-03T06:37:28.061Z,97760.00
2022-12-03T06:39:54.634Z,97751.84
2022-12-03T06:42:21.106Z,97746.53
2022-12-03T06:44:54.604Z,97747.81
2022-12-03T06:47:21.376Z,97744.34
2022-12-03T06:49:47.873Z,97745.31
2022-12-03T06:52:14.588Z,97746.81
2022-12-03T06:54:41.109Z,97742.19
2022-12-03T06:57:07.710Z,97745.00
2022-12-03T06:59:35.995Z,97745.19
2022-12-03T07:02:02.644Z,97745.38
2022-12-03T07:04:29.253Z,97750.88
2022-12-03T07:06:55.735Z,97756.09
2022-12-03T07:09:22.358Z,97753.00
2022-12-03T07:11:48.955Z,97753.88
2022-12-03T07:14:17.245Z,97758.94
2022-12-03T07:16:44.020Z,97761.97
2022-12-03T07:19:11.172Z,97752.81
2022-12-03T07:21:39.579Z,97755.31
2022-12-03T07:24:06.450Z,97758.66
2022-12-03T07:26:32.977Z,97754.72
2022-12-03T07:29:01.270Z,97757.16
2022-12-03T07:31:27.842Z,97764.31
2022-12-03T07:33:54.719Z,97761.97
2022-12-03T07:36:21.373Z,97754.97
2022-12-03T07:38:48.037Z,97754.72
2022-12-03T07:41:14.659Z,97751.59
2022-12-03T07:43:41.272Z,97758.34
2022-12-03T07:46:08.627Z,97747.00
2022-12-03T07:48:35.326Z,97744.22
2022-12-03T07:51:02.129Z,97741.72
2022-12-03T07:53:28.610Z,97748.00
2022-12-03T07:55:55.097Z,97739.72
2022-12-03T07:58:30.115Z,97745.19
2022-12-03T08:00:57.282Z,97738.59
2022-12-03T08:03:24.300Z,97741.06
2022-12-03T08:05:52.535Z,97743.25
2022-12-03T08:08:19.333Z,97745.13
2022-12-03T08:10:49.592Z,97750.44
2022-12-03T08:13:18.356Z,97745.91
2022-12-03T08:15:45.705Z,97742.03
2022-12-03T08:18:24.514Z,97746.75
2022-12-03T08:20:52.894Z,97745.03
2022-12-03T08:23:25.371Z,97742.75
2022-12-03T08:25:52.965Z,97742.00
2022-12-03T08:28:20.711Z,97745.31
2022-12-03T08:31:09.361Z,97743.44
2022-12-03T08:33:37.090Z,97743.28
2022-12-03T08:36:18.866Z,97743.16
2022-12-03T08:38:55.520Z,97743.63
2022-12-03T08:41:43.561Z,97740.38
2022-12-03T08:44:20.333Z,97752.16
2022-12-03T08:46:53.100Z,97742.28
2022-12-03T08:49:21.573Z,97742.59
2022-12-03T08:51:48.968Z,97744.81
2022-12-03T08:54:22.497Z,97748.88
2022-12-03T08:56:48.971Z,97738.59
2022-12-03T08:59:28.742Z,97737.97
2022-12-03T09:01:56.408Z,97745.81
2022-12-03T09:04:43.161Z,97739.25
2022-12-03T09:07:09.778Z,97741.31
2022-12-03T09:09:36.380Z,97737.69
2022-12-03T09:12:12.581Z,97733.00
2022-12-03T09:14:40.512Z,97727.56
2022-12-03T09:17:07.105Z,97728.34
2022-12-03T09:19:35.433Z,97725.38
2022-12-03T09:22:05.197Z,97730.84
2022-12-03T09:24:31.890Z,97728.38
2022-12-03T09:26:58.477Z,97722.56
2022-12-03T09:29:24.933Z,97722.88
2022-12-03T09:31:51.510Z,97723.97
2022-12-03T09:34:18.206Z,97716.91
2022-12-03T09:36:44.739Z,97727.25
2022-12-03T09:39:11.278Z,97722.09
2022-12-03T09:41:38.051Z,97717.69
2022-12-03T09:44:05.705Z,97722.84
2022-12-03T09:46:35.329Z,97729.13
2022-12-03T09:49:13.953Z,97725.97
2022-12-03T09:51:43.034Z,97717.34
2022-12-03T09:54:20.701Z,97722.84
2022-12-03T09:56:47.228Z,97717.50
2022-12-03T09:59:14.895Z,97713.13
2022-12-03T10:01:44.465Z,97719.34
2022-12-03T10:04:11.424Z,97709.78
2022-12-03T10:06:43.913Z,97705.84
2022-12-03T10:09:17.604Z,97694.84
2022-12-03T10:11:44.396Z,97697.34
2022-12-03T10:14:13.893Z,97696.25
2022-12-03T10:16:43.302Z,97688.06
2022-12-03T10:19:19.541Z,97679.59
2022-12-03T10:21:47.904Z,97679.22
2022-12-03T10:24:25.969Z,97681.59
2022-12-03T10:26:57.957Z,97667.28
2022-12-03T10:29:33.132Z,97674.19
2022-12-03T10:32:06.015Z,97668.22
2022-12-03T10:34:34.920Z,97662.25
2022-12-03T10:37:10.508Z,97671.50
2022-12-03T10:40:19.861Z,97672.25
2022-12-03T10:42:46.558Z,97662.03
2022-12-03T10:45:16.589Z,97646.28
2022-12-03T10:47:44.359Z,97655.53
2022-12-03T10:50:19.526Z,97649.56
2022-12-03T10:52:47.097Z,97647.03
2022-12-03T10:55:16.064Z,97639.03
2022-12-03T10:57:46.041Z,97645.78
2022-12-03T11:00:18.399Z,97639.78
2022-12-03T11:02:46.768Z,97629.59
2022-12-03T11:05:20.095Z,97623.75
2022-12-03T11:07:48.853Z,97632.63
2022-12-03T11:10:17.861Z,97633.88
2022-12-03T11:13:30.791Z,97632.53
2022-12-03T11:15:57.797Z,97628.28
2022-12-03T11:18:36.713Z,97636.44
2022-12-03T11:21:06.277Z,97614.59
2022-12-03T11:24:00.835Z,97628.44
2022-12-03T11:26:27.262Z,97636.13
2022-12-03T11:28:56.049Z,97628.53
2022-12-03T11:31:47.443Z,97629.59
2022-12-03T11:34:17.173Z,97632.06
2022-12-03T11:37:18.058Z,97616.19
2022-12-03T11:39:50.725Z,97607.84
2022-12-03T11:42:26.425Z,97609.41
2022-12-03T11:45:11.078Z,97609.66
2022-12-03T11:47:43.883Z,97603.97
2022-12-03T11:50:39.879Z,97592.06
2022-12-03T11:53:28.632Z,97585.94
2022-12-03T11:56:08.582Z,97587.03
2022-12-03T11:58:40.413Z,97585.16
2022-12-03T12:01:08.300Z,97591.16
2022-12-03T12:03:47.377Z,97583.59
2022-12-03T12:06:19.898Z,97579.22
2022-12-03T12:08:52.306Z,97574.69
2022-12-03T12:11:20.010Z,97572.59
2022-12-03T12:13:51.402Z,97572.91
2022-12-03T12:16:39.750Z,97564.97
2022-12-03T12:19:39.769Z,97554.50
2022-12-03T12:22:25.114Z,97559.19
2022-12-03T12:24:54.353Z,97551.03
2022-12-03T12:27:51.190Z,97543.00
2022-12-03T12:30:21.639Z,97539.47
2022-12-03T12:32:49.065Z,97545.25
2022-12-03T12:35:25.121Z,97551.34
2022-12-03T12:38:00.857Z,97548.44
2022-12-03T12:40:34.631Z,97545.19
2022-12-03T12:43:26.206Z,97545.19
2022-12-03T12:45:55.142Z,97542.06
2022-12-03T12:48:28.110Z,97544.28
2022-12-03T12:51:20.593Z,97535.16
2022-12-03T12:53:47.920Z,97530.72
2022-12-03T12:56:32.464Z,97524.28
2022-12-03T12:59:09.374Z,97533.06
2022-12-03T13:01:36.661Z,97532.31
2022-12-03T13:04:14.136Z,97526.97
2022-12-03T13:06:43.503Z,97534.63
2022-12-03T13:09:16.653Z,97522.53
2022-12-03T13:11:50.296Z,97527.41
2022-12-03T13:14:20.289Z,97530.97
2022-12-03T13:16:48.839Z,97533.31
2022-12-03T13:19:28.949Z,97533.47
2022-12-03T13:22:14.775Z,97535.81
2022-12-03T13:24:46.427Z,97532.91
2022-12-03T13:27:19.615Z,97527.13
2022-12-03T13:29:51.408Z,97521.00
2022-12-03T13:32:30.841Z,97520.34
2022-12-03T13:35:17.647Z,97525.50
2022-12-03T13:37:44.823Z,97523.03
2022-12-03T13:43:21.090Z,97519.88
2022-12-03T13:45:49.862Z,97513.00
2022-12-03T13:48:24.765Z,97521.44
2022-12-03T13:50:53.454Z,97519.25
2022-12-03T13:53:24.255Z,97509.78
2022-12-03T13:55:56.827Z,97508.56
2022-12-03T13:58:23.342Z,97524.59
2022-12-03T14:00:53.358Z,97516.88
2022-12-03T14:03:21.791Z,97514.88
2022-12-03T14:05:48.316Z,97509.19
2022-12-03T14:08:14.927Z,97508.09
2022-12-03T14:10:41.640Z,97507.00
2022-12-03T14:13:10.542Z,97513.09
2022-12-03T14:15:37.170Z,97510.09
2022-12-03T14:18:04.311Z,97498.31
2022-12-03T14:20:30.829Z,97498.78
2022-12-03T14:22:59.498Z,97498.66
2022-12-03T14:25:36.872Z,97511.25
2022-12-03T14:28:08.560Z,97515.00
2022-12-03T14:30:36.146Z,97514.53
2022-12-03T14:33:07.335Z,97513.44
2022-12-03T14:35:33.809Z,97508.56
2022-12-03T14:38:00.333Z,97509.66
2022-12-03T14:40:27.341Z,97508.88
2022-12-03T14:42:53.848Z,97509.19
2022-12-03T14:45:20.984Z,97508.09
2022-12-03T14:47:49.213Z,97505.44
2022-12-03T14:50:19.449Z,97500.09
2022-12-03T14:52:45.917Z,97507.34
2022-12-03T14:55:14.526Z,97511.53
2022-12-03T14:57:41.012Z,97507.00
2022-12-03T15:00:08.125Z,97507.00
2022-12-03T15:02:41.415Z,97509.34
2022-12-03T15:05:08.303Z,97507.00
2022-12-03T15:07:35.070Z,97513.44
2022-12-03T15:10:01.770Z,97506.19
2022-12-03T15:12:28.521Z,97497.88
2022-12-03T15:14:55.120Z,97503.22
2022-12-03T15:17:31.019Z,97498.97
2022-12-03T15:19:57.934Z,97504.66
2022-12-03T15:22:26.198Z,97505.44
2022-12-03T15:24:52.999Z,97492.41
2022-12-03T15:27:19.654Z,97494.75
2022-12-03T15:29:48.372Z,97493.97
2022-12-03T15:32:14.945Z,97488.97
2022-12-03T15:34:41.664Z,97490.06
2022-12-03T15:37:09.305Z,97483.16
2022-12-03T15:39:36.429Z,97497.59
2022-12-03T15:42:02.923Z,97486.94
2022-12-03T15:44:29.631Z,97489.16
2022-12-03T15:46:56.351Z,97484.59
2022-12-03T15:49:22.852Z,97486.50
2022-12-03T15:51:51.504Z,97486.81
2022-12-03T15:54:18.253Z,97482.59
2022-12-03T15:56:44.757Z,97480.72
2022-12-03T15:59:21.193Z,97490.94
2022-12-03T16:01:49.156Z,97488.25
2022-12-03T16:04:15.787Z,97495.16
2022-12-03T16:06:44.551Z,97487.16
2022-12-03T16:09:11.107Z,97488.25
2022-12-03T16:11:39.844Z,97489.81
2022-12-03T16:14:12.846Z,97490.94
2022-12-03T16:16:39.352Z,97492.03
2022-12-03T16:19:06.253Z,97489.34
2022-12-03T16:21:36.709Z,97485.91
2022-12-03T16:24:03.338Z,97478.22
2022-12-03T16:26:33.520Z,97484.34
2022-12-03T16:29:00.034Z,97490.47
2022-12-03T16:31:26.987Z,97484.69
2022-12-03T16:33:54.752Z,97483.09
2022-12-03T16:36:23.456Z,97485.78
2022-12-03T16:38:50.173Z,97476.22
2022-12-03T16:41:16.689Z,97477.31
2022-12-03T16:43:47.830Z,97478.44
2022-12-03T16:46:14.726Z,97489.44
2022-12-03T16:48:41.765Z,97475.31
2022-12-03T16:51:12.727Z,97466.06
2022-12-03T16:53:39.267Z,97474.09
2022-12-03T16:56:05.847Z,97477.09
2022-12-03T16:58:34.178Z,97477.41
2022-12-03T17:01:00.730Z,97475.50
2022-12-03T17:03:33.383Z,97472.84
2022-12-03T17:06:08.624Z,97467.50
2022-12-03T17:08:36.707Z,97465.94
2022-12-03T17:11:03.268Z,97464.84
2022-12-03T17:13:29.865Z,97461.72
2022-12-03T17:15:56.470Z,97467.06
2022-12-03T17:18:23.041Z,97459.81
2022-12-03T17:20:58.213Z,97459.06
2022-12-03T17:23:24.714Z,97459.06
2022-12-03T17:25:51.183Z,97449.47
2022-12-03T17:28:19.380Z,97449.81
2022-12-03T17:30:46.095Z,97455.47
2022-12-03T17:33:12.716Z,97463.16
2022-12-03T17:35:41.433Z,97458.91
2022-12-03T17:38:09.086Z,97459.72
2022-12-03T17:40:35.561Z,97449.34
2022-12-03T17:43:04.572Z,97457.34
2022-12-03T17:45:34.952Z,97458.16
2022-12-03T17:48:01.689Z,97444.00
2022-12-03T17:50:28.277Z,97437.91
2022-12-03T17:52:54.727Z,97441.66
2022-12-03T17:55:30.934Z,97442.47
2022-12-03T17:58:15.515Z,97435.56
2022-12-03T18:00:43.172Z,97432.44
2022-12-03T18:03:09.643Z,97439.66
2022-12-03T18:05:36.298Z,97442.66
2022-12-03T18:08:03.292Z,97443.75
2022-12-03T18:10:30.066Z,97447.22
2022-12-03T18:13:01.506Z,97443.00
2022-12-03T18:15:28.557Z,97441.09
2022-12-03T18:17:55.030Z,97446.75
2022-12-03T18:20:30.216Z,97445.22
2022-12-03T18:23:01.101Z,97450.09
2022-12-03T18:25:28.284Z,97452.75
2022-12-03T18:28:02.907Z,97448.06
2022-12-03T18:30:29.393Z,97452.66
2022-12-03T18:32:55.980Z,97455.63
2022-12-03T18:35:22.579Z,97462.84
2022-12-03T18:37:51.083Z,97460.19
2022-12-03T18:40:31.493Z,97455.50
2022-12-03T18:42:58.280Z,97457.84
2022-12-03T18:48:17.605Z,97453.16
2022-12-03T18:50:45.321Z,97455.84
2022-12-03T18:53:13.637Z,97463.38
2022-12-03T18:55:43.230Z,97467.59
2022-12-03T18:58:09.714Z,97461.81
2022-12-03T19:00:36.520Z,97464.50
2022-12-03T19:03:05.501Z,97456.81
2022-12-03T19:05:35.058Z,97457.13
2022-12-03T19:08:02.286Z,97448.34
2022-12-03T19:10:29.577Z,97451.34
2022-12-03T19:12:56.113Z,97459.69
2022-12-03T19:15:24.065Z,97453.09
2022-12-03T19:17:51.021Z,97454.66
2022-12-03T19:20:17.602Z,97451.84
2022-12-03T19:22:47.238Z,97451.84
2022-12-03T19:25:15.569Z,97451.84
2022-12-03T19:27:42.437Z,97454.84
2022-12-03T19:30:10.456Z,97447.94
2022-12-03T19:32:38.785Z,97445.59
2022-12-03T19:35:07.547Z,97445.94
2022-12-03T19:37:34.206Z,97448.16
2022-12-03T19:40:01.229Z,97442.03
2022-12-03T19:42:27.742Z,97450.03
2022-12-03T19:44:54.520Z,97453.50
2022-12-03T19:47:21.201Z,97449.25
2022-12-03T19:49:47.735Z,97453.03
2022-12-03T19:52:14.369Z,97448.81
2022-12-03T19:54:40.930Z,97448.81
2022-12-03T19:57:07.448Z,97436.56
2022-12-03T19:59:36.752Z,97441.91
2022-12-03T20:02:08.795Z,97444.59
2022-12-03T20:04:39.255Z,97452.13
2022-12-03T20:07:06.169Z,97448.69
2022-12-03T20:09:32.781Z,97457.31
2022-12-03T20:11:59.313Z,97459.53
2022-12-03T20:14:26.312Z,97453.41
2022-12-03T20:16:52.917Z,97444.31
2022-12-03T20:19:19.468Z,97447.66
2022-12-03T20:21:45.998Z,97449.84
2022-12-03T20:24:19.403Z,97445.59
2022-12-03T20:26:45.991Z,97446.25
2022-12-03T20:29:12.520Z,97447.34
2022-12-03T20:31:39.130Z,97443.16
2022-12-03T20:34:05.948Z,97442.34
2022-12-03T20:36:32.822Z,97434.66
2022-12-03T20:39:07.295Z,97435.00
2022-12-03T20:41:37.682Z,97430.00
2022-12-03T20:44:06.263Z,97429.22
2022-12-03T20:46:37.439Z,97426.88
2022-12-03T20:49:04.119Z,97443.66
2022-12-03T20:51:31.525Z,97442.88
2022-12-03T20:54:00.077Z,97435.97
2022-12-03T20:56:33.661Z,97427.97
2022-12-03T20:59:05.115Z,97425.31
2022-12-03T21:01:32.563Z,97431.75
2022-12-03T21:03:59.159Z,97437.06
2022-12-03T21:06:29.773Z,97443.22
2022-12-03T21:08:57.757Z,97436.75
2022-12-03T21:11:27.082Z,97424.53
2022-12-03T21:13:56.428Z,97427.97
2022-12-03T21:16:45.992Z,97430.66
2022-12-03T21:19:14.211Z,97427.22
2022-12-03T21:21:42.798Z,97423.75
2022-12-03T21:24:11.891Z,97435.97
2022-12-03T21:26:38.675Z,97427.97
2022-12-03T21:29:05.176Z,97426.09
2022-12-03T21:31:32.485Z,97419.97
2022-12-03T21:34:01.291Z,97419.97
2022-12-03T21:36:27.753Z,97416.53
2022-12-03T21:38:54.255Z,97420.31
2022-12-03T21:41:21.065Z,97418.41
2022-12-03T21:43:47.663Z,97418.41
2022-12-03T21:47:12.824Z,97409.66
2022-12-03T21:49:04.130Z,97402.41
2022-12-03T21:51:30.963Z,97405.09
2022-12-03T21:53:57.431Z,97406.19
2022-12-03T21:56:25.770Z,97411.22
2022-12-03T21:58:52.302Z,97413.06
2022-12-03T22:01:21.770Z,97430.66
2022-12-03T22:03:53.238Z,97420.75
2022-12-03T22:06:20.247Z,97433.00
2022-12-03T22:08:47.656Z,97428.41
2022-12-03T22:11:20.075Z,97419.31
2022-12-03T22:13:47.034Z,97420.09
2022-12-03T22:16:17.221Z,97420.91
2022-12-03T22:18:49.258Z,97420.91
2022-12-03T22:21:18.827Z,97422.75
2022-12-03T22:23:45.810Z,97414.47
2022-12-03T22:26:17.327Z,97417.44
2022-12-03T22:28:48.477Z,97424.66
2022-12-03T22:31:16.700Z,97414.47
2022-12-03T22:33:50.460Z,97415.56
2022-12-03T22:36:21.507Z,97427.81
2022-12-03T22:38:51.858Z,97412.56
2022-12-03T22:41:19.893Z,97406.47
2022-12-03T22:43:47.325Z,97411.00
2022-12-03T22:46:16.191Z,97419.81
2022-12-03T22:48:44.429Z,97412.56
2022-12-03T22:51:22.699Z,97417.91
2022-12-03T22:53:54.954Z,97425.13
2022-12-03T22:56:30.360Z,97425.13
2022-12-03T22:58:57.202Z,97428.56
2022-12-03T23:01:34.483Z,97438.13
2022-12-03T23:04:01.860Z,97431.25
2022-12-03T23:06:29.111Z,97423.25
2022-12-03T23:08:56.508Z,97417.13
2022-12-03T23:11:23.120Z,97418.69
2022-12-03T23:13:49.711Z,97424.81
2022-12-03T23:16:22.389Z,97424.81
2022-12-03T23:18:51.009Z,97425.91
2022-12-03T23:21:28.622Z,97429.34
2022-12-03T23:23:56.850Z,97430.13
2022-12-03T23:26:23.344Z,97429.34
2022-12-03T23:28:49.836Z,97421.34
2022-12-03T23:31:24.811Z,97414.13
2022-12-03T23:33:52.060Z,97403.47
2022-12-03T23:36:23.044Z,97410.34
2022-12-03T23:38:52.826Z,97413.81
2022-12-03T23:41:21.812Z,97416.47
2022-12-03T23:43:48.592Z,97406.13
2022-12-03T23:46:21.487Z,97406.13
2022-12-03T23:48:51.908Z,97403.47
2022-12-03T23:51:21.783Z,97403.47
2022-12-03T23:53:50.565Z,97398.91
2022-12-03T23:56:19.932Z,97390.91
2022-12-03T23:58:46.893Z,97393.25
